Weather History for Platteville, WI

Change the Weather History Date:

Sunday, August 25, 2013

  Actual Average (KDBQ) Record (KDBQ)
Temperature  
Mean Temperature 78 °F 69 °F  
Max Temperature 87 °F 79 °F 95 °F (1948)
Min Temperature 69 °F 59 °F 42 °F (1958)
Degree Days  
Heating Degree Days 0 1  
Month to date heating degree days 10  
Since 1 June heating degree days 58  
Since 1 July heating degree days 18  
Cooling Degree Days 13 5  
Month to date cooling degree days 150  
Year to date cooling degree days 550  
Since 1 June cooling degree days 513  
Growing Degree Days 28 (Base 50)    
Moisture  
Dew Point 67 °F    
Average Humidity 71    
Maximum Humidity 87    
Minimum Humidity 48    
Precipitation  
Precipitation 0.00 in 0.14 in 1.42 in (1880)
Month to date precipitation 3.59  
Year to date precipitation 25.17  
Snow  
Snow 0.00 in 0.00 in - ()
Month to date snowfall 0.0  
Since 1 June snowfall 0.0  
Since 1 July snowfall 0.0  
Snow Depth -    
Sea Level Pressure  
Sea Level Pressure 30.18 in    
Wind  
Wind Speed 9 mph (South)    
Max Wind Speed 16 mph    
Max Gust Speed 21 mph    
Visibility 10 miles    
Events      
T = Trace of Precipitation, MM = Missing Value Source: NWS Daily Summary

Daily Weather History Graph

Daily Weather History Graph

Search for Another Location

Airport:

Trip Planner

Search our weather history database for the weather conditions in past years. The results will help you decide how hot, cold, wet, or windy it might be!

Date:

Astronomy

Aug. 25, 2013 Rise Set
Actual Time 6:19 AM CDT 7:47 PM CDT
Civil Twilight 5:49 AM CDT 8:16 PM CDT
Nautical Twilight 5:14 AM CDT 8:52 PM CDT
Astronomical Twilight 4:36 AM CDT 9:30 PM CDT
Moon 10:09 PM CDT (8/25) 11:29 AM CDT (8/25)
Length of Visible Light 14h 27m
Length of Day
13h 28m
Waning Gibbous, 75% of the Moon is Illuminated
Aug 25
Waning Gibbous
Aug 28
Last Quarter
Sep 5
New
Sep 12
First Quarter
Sep 19
Full

Hourly Weather History & Observations

Time (CDT) Temp. Heat Index Dew Point Humidity Pressure Visibility Wind Dir Wind Speed Gust Speed Precip Events Conditions
12:15 AM 71.1 °F - 66.9 °F 87% 30.18 in 10.0 mi SSE 5.8 mph - N/A   Clear
12:35 AM 71.1 °F - 66.9 °F 87% 30.18 in 10.0 mi SSE 6.9 mph - N/A   Clear
12:55 AM 70.7 °F - 66.7 °F 87% 30.18 in 10.0 mi SSE 4.6 mph - N/A   Clear
1:15 AM 71.1 °F - 67.1 °F 87% 30.18 in 10.0 mi SSE 6.9 mph - N/A   Clear
1:35 AM 71.8 °F - 67.1 °F 85% 30.18 in 10.0 mi SSE 9.2 mph - N/A   Clear
1:55 AM 72.0 °F - 67.1 °F 85% 30.18 in 10.0 mi South 8.1 mph - N/A   Clear
2:15 AM 72.1 °F - 67.1 °F 84% 30.18 in 10.0 mi South 9.2 mph - N/A   Clear
2:35 AM 71.8 °F - 67.1 °F 85% 30.18 in 10.0 mi South 9.2 mph - N/A   Clear
2:55 AM 72.1 °F - 66.9 °F 84% 30.19 in 10.0 mi South 9.2 mph - N/A   Clear
3:15 AM 72.1 °F - 67.1 °F 84% 30.19 in 10.0 mi South 9.2 mph - N/A   Clear
3:35 AM 71.8 °F - 66.9 °F 85% 30.19 in 10.0 mi South 8.1 mph - N/A   Clear
3:55 AM 71.8 °F - 67.1 °F 85% 30.19 in 10.0 mi South 8.1 mph - N/A   Clear
4:15 AM 71.6 °F - 66.7 °F 85% 30.19 in 10.0 mi South 5.8 mph - N/A   Clear
4:35 AM 71.6 °F - 66.7 °F 85% 30.20 in 10.0 mi South 5.8 mph - N/A   Clear
4:55 AM 71.1 °F - 66.6 °F 86% 30.20 in 10.0 mi South 5.8 mph - N/A   Clear
5:15 AM 71.1 °F - 66.4 °F 85% 30.20 in 10.0 mi South 6.9 mph - N/A   Clear
5:35 AM 70.7 °F - 66.2 °F 86% 30.20 in 10.0 mi South 9.2 mph - N/A   Clear
5:55 AM 70.3 °F - 66.0 °F 86% 30.21 in 10.0 mi South 8.1 mph - N/A   Clear
6:15 AM 69.8 °F - 65.7 °F 87% 30.21 in 10.0 mi SSW 5.8 mph - N/A   Clear
6:35 AM 69.8 °F - 65.7 °F 87% 30.21 in 10.0 mi SSW 6.9 mph - N/A   Clear
6:55 AM 69.8 °F - 65.8 °F 87% 30.22 in 10.0 mi South 4.6 mph - N/A   Clear
7:15 AM 69.8 °F - 65.8 °F 87% 30.22 in 10.0 mi South 6.9 mph - N/A   Clear
7:35 AM 70.2 °F - 66.2 °F 87% 30.22 in 10.0 mi South 6.9 mph - N/A   Clear
7:55 AM 71.8 °F - 66.7 °F 84% 30.22 in 10.0 mi South 8.1 mph - N/A   Clear
8:15 AM 73.4 °F - 66.9 °F 80% 30.22 in 10.0 mi South 10.4 mph - N/A   Clear
8:35 AM 74.7 °F - 67.3 °F 78% 30.23 in 10.0 mi SSW 8.1 mph - N/A   Clear
8:55 AM 76.1 °F - 67.1 °F 74% 30.23 in 10.0 mi SSW 9.2 mph - N/A   Clear
9:15 AM 77.0 °F - 67.1 °F 71% 30.22 in 10.0 mi SSW 10.4 mph - N/A   Clear
9:35 AM 78.1 °F - 67.5 °F 70% 30.22 in 10.0 mi SSW 9.2 mph - N/A   Clear
9:55 AM 78.8 °F - 67.6 °F 68% 30.22 in 10.0 mi SSW 10.4 mph - N/A   Clear
10:15 AM 80.1 °F 82.6 °F 67.8 °F 66% 30.22 in 10.0 mi SW 10.4 mph 17.3 mph N/A   Clear
10:35 AM 81.1 °F 84.2 °F 68.7 °F 66% 30.21 in 10.0 mi SW 13.8 mph - N/A   Clear
10:55 AM 81.7 °F 84.9 °F 68.7 °F 65% 30.21 in 10.0 mi SSW 13.8 mph - N/A   Clear
11:15 AM 82.6 °F 85.9 °F 68.9 °F 63% 30.21 in 10.0 mi SSW 13.8 mph - N/A   Clear
11:35 AM 83.3 °F 86.9 °F 68.9 °F 62% 30.21 in 10.0 mi SSW 13.8 mph 19.6 mph N/A   Clear
11:55 AM 83.8 °F 88.1 °F 69.8 °F 63% 30.20 in 10.0 mi SW 12.7 mph - N/A   Clear
12:15 PM 84.4 °F 88.7 °F 70.0 °F 62% 30.19 in 10.0 mi SSW 13.8 mph - N/A   Clear
12:35 PM 85.1 °F 89.8 °F 70.3 °F 61% 30.19 in 10.0 mi SSW 12.7 mph 18.4 mph N/A   Clear
12:55 PM 85.1 °F 89.8 °F 70.3 °F 61% 30.18 in 10.0 mi SSW 11.5 mph 18.4 mph N/A   Clear
1:15 PM 86.0 °F 90.7 °F 70.3 °F 59% 30.18 in 10.0 mi SSW 10.4 mph 17.3 mph N/A   Clear
1:35 PM 86.4 °F 91.4 °F 70.3 °F 59% 30.17 in 10.0 mi SSW 11.5 mph 16.1 mph N/A   Clear
1:55 PM 86.9 °F 91.7 °F 70.2 °F 57% 30.17 in 10.0 mi SSW 11.5 mph - N/A   Clear
2:15 PM 86.9 °F 91.0 °F 69.1 °F 55% 30.17 in 10.0 mi SW 13.8 mph 18.4 mph N/A   Clear
2:35 PM 87.1 °F 91.6 °F 69.4 °F 56% 30.17 in 10.0 mi SSW 15.0 mph - N/A   Clear
2:55 PM 87.3 °F 91.6 °F 69.3 °F 55% 30.16 in 10.0 mi SSW 16.1 mph 20.7 mph N/A   Clear
3:15 PM 87.4 °F 91.2 °F 68.4 °F 53% 30.15 in 10.0 mi SSW 11.5 mph - N/A   Clear
3:35 PM 87.4 °F 91.2 °F 68.4 °F 53% 30.15 in 10.0 mi South 12.7 mph - N/A   Clear
3:55 PM 87.3 °F 90.2 °F 67.1 °F 51% 30.15 in 10.0 mi SSW 15.0 mph - N/A   Clear
4:15 PM 87.3 °F 89.5 °F 66.2 °F 49% 30.14 in 10.0 mi South 15.0 mph - N/A   Clear
4:35 PM 87.3 °F 89.8 °F 66.4 °F 50% 30.14 in 10.0 mi South 13.8 mph - N/A   Clear
4:55 PM 86.9 °F 88.6 °F 64.9 °F 48% 30.14 in 10.0 mi SSW 13.8 mph - N/A   Clear
5:15 PM 86.7 °F 88.7 °F 65.5 °F 49% 30.14 in 10.0 mi South 11.5 mph - N/A   Clear
5:35 PM 86.2 °F 88.4 °F 66.0 °F 51% 30.13 in 10.0 mi SSW 11.5 mph - N/A   Clear
5:55 PM 85.6 °F 87.9 °F 66.4 °F 52% 30.13 in 10.0 mi SSW 8.1 mph - N/A   Clear
6:15 PM 84.7 °F 87.4 °F 66.9 °F 55% 30.13 in 10.0 mi South 10.4 mph - N/A   Clear
6:35 PM 83.5 °F 86.2 °F 67.3 °F 58% 30.13 in 10.0 mi South 9.2 mph - N/A   Clear
6:55 PM 82.4 °F 84.8 °F 66.7 °F 59% 30.12 in 10.0 mi South 9.2 mph - N/A   Clear
7:15 PM 80.8 °F 83.1 °F 66.6 °F 62% 30.12 in 10.0 mi South 8.1 mph - N/A   Clear
7:35 PM 79.2 °F - 66.4 °F 65% 30.12 in 10.0 mi South 8.1 mph - N/A   Clear
7:55 PM 78.4 °F - 66.0 °F 66% 30.12 in 10.0 mi South 8.1 mph - N/A   Clear
8:15 PM 77.4 °F - 65.8 °F 67% 30.13 in 10.0 mi South 8.1 mph - N/A   Clear
8:35 PM 77.2 °F - 66.0 °F 68% 30.14 in 10.0 mi South 6.9 mph - N/A   Clear
8:55 PM 76.1 °F - 66.2 °F 71% 30.14 in 10.0 mi South 5.8 mph - N/A   Clear
9:15 PM 76.1 °F - 66.2 °F 71% 30.15 in 10.0 mi South 8.1 mph - N/A   Clear
9:35 PM 75.4 °F - 66.2 °F 73% 30.15 in 10.0 mi South 8.1 mph - N/A   Clear
9:55 PM 73.9 °F - 66.2 °F 77% 30.16 in 10.0 mi South 5.8 mph - N/A   Clear
10:15 PM 73.2 °F - 66.2 °F 79% 30.16 in 10.0 mi South 5.8 mph - N/A   Clear
10:35 PM 74.1 °F - 66.2 °F 76% 30.16 in 10.0 mi South 8.1 mph - N/A   Clear
10:55 PM 72.7 °F - 66.2 °F 80% 30.15 in 10.0 mi South 6.9 mph - N/A   Clear
11:15 PM 72.7 °F - 66.2 °F 80% 30.15 in 10.0 mi South 6.9 mph - N/A   Clear
11:35 PM 72.5 °F - 66.2 °F 81% 30.15 in 10.0 mi South 6.9 mph - N/A   Clear
11:55 PM 72.0 °F - 66.2 °F 82% 30.15 in 10.0 mi SSW 5.8 mph - N/A   Clear